Rockville, Minnesota
Current Conditions -  °F | °C
As of 1:53 AM on Thursday 23 Oct 2014 (Local Time) from KSTC Reporting Station
Light Rain Light Rain  
Wind Chill: 53°   Ceiling: 1300
Heat Index: 53°   Visibility: 5mi
Dew Point: 49°   Wind: 7mph
Humidity: 86%   Direction: 160°SSE
Pressure: 29.97"   Gusts: NA
Location:  45.47°N, 94.34°W
Report Text: KSTC 230653Z AUTO 16006KT 5SM -RA BR OVC013 12/09 A2997 RMK AO2 SLP158 P0010 T01170094
Loading
Personal Weather Stations






























Interactive Weather Map
Tropical Storm Tracking
New forecast layout! Learn more

10-Day Weather Forecast

Advertisements
Track Severe Weather on mobile